Time;durP1;ratioP1;P1;durP2;ratioP2;P2;SDS_P1;SDS_P2;PMS_P1;PMS_P2;Temp;Humidity;BMP_temperature;BMP_pressure;BME280_temperature;BME280_humidity;BME280_pressure;Samples;Min_cycle;Max_cycle;Signal;HPM_P1;HPM_P2
2022/12/10 00:00:52;;;;;;;32.28;15.70;;;3.60;1.00;;;;;;5070785;28;20371;-58
2022/12/10 00:03:18;;;;;;;30.33;14.53;;;3.20;1.00;;;;;;5052391;28;20402;-58
2022/12/10 00:05:44;;;;;;;30.10;14.90;;;3.20;1.00;;;;;;5069887;28;20387;-58
2022/12/10 00:08:09;;;;;;;33.17;16.00;;;3.20;1.00;;;;;;5070498;28;20395;-58
2022/12/10 00:10:39;;;;;;;30.00;15.13;;;3.20;74.00;;;;;;5069865;28;20441;-58
2022/12/10 00:13:05;;;;;;;32.25;15.00;;;3.20;1.00;;;;;;5070151;28;20413;-58
2022/12/10 00:15:30;;;;;;;31.43;14.33;;;3.10;99.90;;;;;;5069455;28;20380;-58
2022/12/10 00:17:56;;;;;;;29.43;14.27;;;3.20;99.90;;;;;;5070520;28;20423;-58
2022/12/10 00:20:21;;;;;;;31.93;14.87;;;3.20;99.90;;;;;;5069474;28;20372;-58
2022/12/10 00:22:47;;;;;;;30.30;13.97;;;3.20;42.70;;;;;;5070101;28;20825;-58
2022/12/10 00:25:12;;;;;;;32.95;14.65;;;4.60;87.80;;;;;;5070451;28;20376;-58
2022/12/10 00:27:38;;;;;;;33.43;15.53;;;3.10;99.90;;;;;;5051346;28;20407;-58
2022/12/10 00:30:04;;;;;;;32.00;14.52;;;3.30;99.90;;;;;;5069749;28;20714;-58
2022/12/10 00:32:30;;;;;;;30.55;13.05;;;3.10;99.90;;;;;;5069206;28;20386;-58
2022/12/10 00:34:55;;;;;;;31.70;14.47;;;3.00;99.90;;;;;;5069849;28;20869;-59
2022/12/10 00:37:21;;;;;;;28.80;14.77;;;3.40;99.90;;;;;;5070011;28;20387;-59
2022/12/10 00:39:46;;;;;;;28.90;13.80;;;2.90;1.00;;;;;;5069257;28;20367;-59
2022/12/10 00:42:12;;;;;;;32.13;15.60;;;4.00;1.00;;;;;;5070221;28;20409;-59
2022/12/10 00:44:37;;;;;;;33.20;14.73;;;2.90;99.90;;;;;;5068848;28;20405;-63
2022/12/10 00:47:03;;;;;;;34.13;16.77;;;2.90;1.00;;;;;;5070224;28;20403;-59
2022/12/10 00:49:29;;;;;;;31.25;14.05;;;3.10;99.90;;;;;;5051616;28;20433;-59
2022/12/10 00:51:54;;;;;;;39.63;14.47;;;3.20;99.90;;;;;;5069995;28;20380;-63
2022/12/10 00:54:20;;;;;;;32.70;15.25;;;3.20;51.60;;;;;;5069857;28;20433;-58
2022/12/10 00:56:47;;;;;;;28.07;13.17;;;3.20;4.80;;;;;;5069250;28;20379;-58
2022/12/10 00:59:12;;;;;;;27.50;13.70;;;3.90;68.60;;;;;;5070240;28;20376;-58
2022/12/10 01:01:41;;;;;;;33.33;16.40;;;3.10;99.90;;;;;;5069341;28;20403;-58
2022/12/10 01:04:13;;;;;;;36.67;16.77;;;3.10;76.10;;;;;;5069476;28;20771;-58
2022/12/10 01:06:41;;;;;;;35.00;15.68;;;3.10;43.10;;;;;;5069026;28;20861;-58
2022/12/10 01:09:10;;;;;;;32.67;15.20;;;4.90;99.90;;;;;;5069421;28;20388;-58
2022/12/10 01:11:38;;;;;;;28.50;14.23;;;3.10;1.00;;;;;;5069403;28;20461;-59
2022/12/10 01:14:05;;;;;;;36.00;16.13;;;3.10;1.00;;;;;;5069549;28;20460;-58
2022/12/10 01:16:30;;;;;;;34.90;16.05;;;3.00;99.90;;;;;;5068871;28;20384;-58
2022/12/10 01:18:58;;;;;;;31.98;15.20;;;4.80;99.90;;;;;;5068914;28;20490;-58
2022/12/10 01:21:25;;;;;;;35.80;14.98;;;3.10;99.90;;;;;;5069582;28;20766;-58
2022/12/10 01:23:52;;;;;;;35.80;14.70;;;3.00;38.50;;;;;;5069360;28;20414;-58
2022/12/10 01:26:26;;;;;;;34.75;15.75;;;3.00;99.90;;;;;;5069206;28;20419;-58
2022/12/10 01:28:53;;;;;;;32.67;15.93;;;3.10;99.90;;;;;;5068543;28;20411;-58
2022/12/10 01:31:25;;;;;;;33.63;15.13;;;3.10;99.90;;;;;;5070150;28;20380;-58
2022/12/10 01:33:51;;;;;;;36.13;15.85;;;3.10;99.90;;;;;;5073811;28;20394;-58
2022/12/10 01:36:22;;;;;;;36.83;15.30;;;3.10;99.90;;;;;;5072520;28;20411;-58
2022/12/10 01:38:48;;;;;;;29.95;13.85;;;3.00;1.00;;;;;;5072939;28;20429;-58
2022/12/10 01:41:23;;;;;;;27.40;13.73;;;2.80;99.90;;;;;;5073350;28;20429;-58
2022/12/10 01:44:22;;;;;;;27.33;14.23;;;4.10;1.00;;;;;;5072541;28;20383;-59
2022/12/10 01:47:00;;;;;;;29.05;13.15;;;2.90;1.00;;;;;;5072346;28;20461;-59
2022/12/10 01:49:39;;;;;;;28.45;13.52;;;2.90;1.00;;;;;;5073015;28;20932;-64
2022/12/10 01:52:10;;;;;;;30.45;14.25;;;2.90;1.00;;;;;;5073024;28;20383;-60
2022/12/10 01:54:39;;;;;;;30.55;12.98;;;2.90;99.90;;;;;;5072205;28;20407;-58
2022/12/10 01:57:12;;;;;;;29.23;13.70;;;2.90;1.00;;;;;;5072417;28;20388;-58
2022/12/10 01:59:40;;;;;;;29.10;13.40;;;2.90;1.00;;;;;;5072199;28;20490;-58
2022/12/10 02:02:28;;;;;;;32.70;14.20;;;4.20;1.00;;;;;;5072775;28;20375;-58
2022/12/10 02:04:54;;;;;;;30.10;13.65;;;2.90;1.00;;;;;;5072284;28;20456;-58
2022/12/10 02:07:32;;;;;;;27.70;14.57;;;2.90;83.30;;;;;;5072444;28;20764;-58
2022/12/10 02:10:37;;;;;;;27.60;13.00;;;3.00;1.00;;;;;;5072594;28;20427;-58
2022/12/10 02:13:14;;;;;;;28.95;13.13;;;2.90;1.00;;;;;;5073007;28;20829;-58
2022/12/10 02:15:57;;;;;;;28.87;13.80;;;2.90;27.60;;;;;;5071657;28;20378;-58
2022/12/10 02:18:36;;;;;;;31.25;14.45;;;2.80;99.90;;;;;;5056680;28;20376;-58
2022/12/10 02:21:16;;;;;;;28.30;13.20;;;3.30;99.90;;;;;;5054464;28;20388;-59
2022/12/10 02:23:48;;;;;;;26.02;12.90;;;2.90;1.00;;;;;;5072336;28;20420;-58
2022/12/10 02:26:22;;;;;;;31.65;13.50;;;4.00;99.90;;;;;;5072466;28;20494;-59
2022/12/10 02:29:22;;;;;;;29.63;12.80;;;3.00;1.00;;;;;;5071571;28;20744;-58
2022/12/10 02:32:16;;;;;;;32.13;15.77;;;4.00;1.00;;;;;;5018354;28;20474;-59
2022/12/10 02:34:50;;;;;;;31.58;14.43;;;3.10;1.00;;;;;;5034591;28;20407;-60
2022/12/10 02:37:38;;;;;;;27.65;12.93;;;4.80;99.90;;;;;;5071984;28;20464;-59
2022/12/10 02:40:15;;;;;;;26.95;12.07;;;3.10;99.90;;;;;;5072346;28;20463;-59
2022/12/10 02:42:42;;;;;;;27.65;13.23;;;4.50;99.90;;;;;;5070834;28;20388;-59
2022/12/10 02:45:09;;;;;;;31.30;12.93;;;2.90;99.90;;;;;;5072406;28;20414;-59
2022/12/10 02:47:36;;;;;;;27.77;13.68;;;2.90;99.90;;;;;;5070937;28;20411;-59
2022/12/10 02:50:02;;;;;;;26.48;12.70;;;2.80;99.90;;;;;;5053876;28;20396;-59
2022/12/10 02:52:28;;;;;;;28.80;12.95;;;2.80;99.90;;;;;;5071529;28;20380;-66
2022/12/10 02:54:54;;;;;;;31.25;14.07;;;2.70;1.00;;;;;;5053708;28;20792;-60
2022/12/10 02:57:45;;;;;;;25.92;12.90;;;2.70;87.30;;;;;;5071482;28;20761;-60
2022/12/10 03:00:16;;;;;;;29.48;13.35;;;2.70;99.90;;;;;;5072042;28;20376;-59
2022/12/10 03:03:15;;;;;;;29.80;13.45;;;2.50;1.00;;;;;;5071433;28;20790;-60
2022/12/10 03:06:12;;;;;;;30.50;13.67;;;2.60;1.00;;;;;;5071074;28;20498;-59
2022/12/10 03:09:03;;;;;;;29.77;13.80;;;2.60;99.90;;;;;;5071048;28;20392;-59
2022/12/10 03:11:28;;;;;;;30.17;13.53;;;2.70;99.90;;;;;;5071309;28;20371;-65
2022/12/10 03:13:59;;;;;;;30.80;14.05;;;2.60;99.90;;;;;;5070951;28;20898;-59
2022/12/10 03:16:29;;;;;;;31.15;14.88;;;2.50;1.00;;;;;;5071575;28;20467;-63
2022/12/10 03:19:02;;;;;;;31.40;13.00;;;3.60;1.00;;;;;;5071182;28;20506;-60
2022/12/10 03:21:32;;;;;;;30.80;13.90;;;2.30;1.00;;;;;;5071280;28;20368;-65
2022/12/10 03:23:58;;;;;;;33.03;14.15;;;2.10;99.90;;;;;;5071278;28;20471;-59
2022/12/10 03:26:25;;;;;;;32.10;14.32;;;2.00;99.90;;;;;;5071425;28;20545;-60
2022/12/10 03:29:02;;;;;;;32.50;15.13;;;2.00;1.00;;;;;;5070468;28;20387;-60
2022/12/10 03:31:29;;;;;;;28.15;13.27;;;2.10;59.30;;;;;;5070833;28;20380;-65
2022/12/10 03:33:55;;;;;;;33.70;15.50;;;2.10;1.00;;;;;;5070852;28;20385;-60
2022/12/10 03:36:22;;;;;;;34.30;14.65;;;2.00;99.90;;;;;;5070794;28;20752;-60
2022/12/10 03:38:48;;;;;;;26.92;12.35;;;2.10;99.90;;;;;;5070498;28;20388;-59
2022/12/10 03:41:14;;;;;;;32.35;14.23;;;2.10;99.90;;;;;;5070981;28;20394;-59
2022/12/10 03:44:12;;;;;;;29.08;13.70;;;2.10;1.00;;;;;;5070475;28;20459;-60
2022/12/10 03:46:38;;;;;;;25.77;13.50;;;2.10;1.00;;;;;;5014774;28;20435;-60
2022/12/10 03:49:05;;;;;;;30.58;14.35;;;2.10;1.00;;;;;;5070781;28;20382;-59
2022/12/10 03:51:30;;;;;;;29.53;14.30;;;2.00;1.00;;;;;;5052424;28;20483;-59
2022/12/10 03:53:56;;;;;;;27.80;14.00;;;2.00;1.00;;;;;;5070316;28;20896;-60
2022/12/10 03:56:22;;;;;;;27.88;13.93;;;2.00;1.00;;;;;;5069726;28;20467;-59
2022/12/10 03:58:48;;;;;;;33.00;12.97;;;2.00;1.00;;;;;;5069459;28;20387;-59
2022/12/10 04:01:15;;;;;;;29.25;13.60;;;3.40;1.00;;;;;;5070700;28;20375;-60
2022/12/10 04:03:42;;;;;;;29.25;13.35;;;2.10;1.00;;;;;;5069607;28;20449;-59
2022/12/10 04:06:16;;;;;;;30.65;13.50;;;2.20;99.90;;;;;;5070365;28;20422;-59
2022/12/10 04:08:42;;;;;;;32.40;13.80;;;2.20;99.90;;;;;;5070062;28;20376;-60
2022/12/10 04:11:10;;;;;;;30.00;14.35;;;2.10;99.90;;;;;;5070414;28;20433;-59
2022/12/10 04:16:28;;;;;;;27.52;13.90;;;2.10;99.90;;;;;;5070320;28;20383;-60
2022/12/10 04:19:09;;;;;;;28.00;13.77;;;2.10;1.00;;;;;;5069592;28;20562;-59
2022/12/10 04:27:16;;;;;;;28.55;13.43;;;2.20;1.00;;;;;;5069678;28;20452;-60
2022/12/10 04:29:41;;;;;;;33.17;16.05;;;2.20;1.00;;;;;;5069473;28;20372;-61
2022/12/10 04:32:07;;;;;;;30.17;13.93;;;2.30;99.90;;;;;;5069989;28;20744;-60
2022/12/10 04:34:33;;;;;;;32.95;14.18;;;2.30;99.90;;;;;;5068728;28;20407;-60
2022/12/10 04:36:59;;;;;;;30.03;13.97;;;2.30;99.90;;;;;;5069586;28;20482;-60
2022/12/10 04:39:25;;;;;;;29.23;14.20;;;2.30;99.90;;;;;;5070094;28;20368;-61
2022/12/10 04:41:51;;;;;;;29.17;14.45;;;2.30;39.20;;;;;;5069572;28;20721;-60
2022/12/10 04:44:18;;;;;;;29.30;13.55;;;2.30;76.40;;;;;;5069731;28;20891;-60
2022/12/10 04:46:44;;;;;;;34.45;14.57;;;2.30;99.90;;;;;;5069089;28;20494;-60
2022/12/10 04:49:10;;;;;;;29.63;14.32;;;2.30;34.50;;;;;;5069758;28;20399;-60
2022/12/10 04:51:36;;;;;;;27.85;13.75;;;2.30;99.90;;;;;;5069028;28;20833;-59
2022/12/10 04:54:02;;;;;;;29.60;14.45;;;2.30;99.90;;;;;;5069859;28;20449;-59
2022/12/10 04:56:28;;;;;;;30.70;14.70;;;2.20;1.00;;;;;;5069101;28;20741;-59
2022/12/10 04:58:58;;;;;;;31.90;13.93;;;3.80;36.10;;;;;;5069172;28;20429;-58
2022/12/10 05:01:24;;;;;;;28.73;13.73;;;2.10;99.90;;;;;;5070167;28;20384;-58
2022/12/10 05:03:50;;;;;;;28.05;13.20;;;2.10;99.90;;;;;;5068640;28;20449;-58
2022/12/10 05:06:17;;;;;;;28.17;12.70;;;2.10;99.90;;;;;;5070776;28;20399;-58
2022/12/10 05:08:43;;;;;;;32.72;14.13;;;2.00;1.00;;;;;;5073530;28;20849;-58
2022/12/10 05:11:18;;;;;;;30.35;13.23;;;2.00;1.00;;;;;;5073346;28;20718;-59
2022/12/10 05:13:45;;;;;;;30.90;13.95;;;2.10;1.00;;;;;;5073379;28;20871;-59
2022/12/10 05:16:12;;;;;;;33.53;14.45;;;2.20;1.00;;;;;;5074061;28;20842;-61
2022/12/10 05:18:38;;;;;;;27.70;14.80;;;2.20;99.90;;;;;;5073097;28;20418;-59
2022/12/10 05:21:06;;;;;;;32.75;14.50;;;2.10;99.90;;;;;;5073863;28;20416;-59
2022/12/10 05:23:35;;;;;;;29.20;14.10;;;2.10;1.00;;;;;;5073197;28;20379;-65
2022/12/10 05:26:05;;;;;;;30.27;13.65;;;2.10;1.00;;;;;;5073503;28;20466;-59
2022/12/10 05:28:33;;;;;;;27.38;14.18;;;2.10;99.90;;;;;;5072704;28;20394;-65
2022/12/10 05:30:59;;;;;;;30.88;14.82;;;2.10;99.90;;;;;;5071307;28;20736;-59
2022/12/10 05:33:25;;;;;;;27.65;13.15;;;2.10;99.90;;;;;;5068653;28;20400;-59
2022/12/10 05:35:56;;;;;;;23.95;11.93;;;2.00;1.00;;;;;;5072069;28;20410;-59
2022/12/10 05:38:22;;;;;;;32.40;14.82;;;2.00;99.90;;;;;;5072592;28;20861;-59
2022/12/10 05:40:47;;;;;;;30.55;13.55;;;2.00;1.00;;;;;;5072107;28;20437;-59
2022/12/10 05:43:13;;;;;;;30.52;14.65;;;2.60;1.00;;;;;;5072507;28;20379;-59
2022/12/10 05:45:39;;;;;;;30.00;14.88;;;2.00;1.00;;;;;;5072167;28;20387;-59
2022/12/10 05:48:05;;;;;;;30.30;13.80;;;1.90;1.00;;;;;;5072837;28;20411;-60
2022/12/10 05:50:32;;;;;;;31.70;14.40;;;2.00;1.00;;;;;;5072375;28;20419;-64
2022/12/10 05:52:58;;;;;;;28.48;13.30;;;2.10;99.90;;;;;;5072526;28;20702;-59
2022/12/10 05:55:24;;;;;;;29.10;13.40;;;3.40;1.00;;;;;;5072910;28;20390;-59
2022/12/10 05:57:50;;;;;;;32.95;13.90;;;1.90;1.00;;;;;;5069178;28;20383;-59
2022/12/10 06:00:15;;;;;;;27.03;13.63;;;1.80;1.00;;;;;;5070244;28;20387;-59
2022/12/10 06:02:41;;;;;;;30.80;14.00;;;1.80;1.00;;;;;;5066989;28;20392;-59
2022/12/10 06:05:07;;;;;;;32.20;14.67;;;1.80;17.70;;;;;;5071294;28;20733;-59
2022/12/10 06:07:33;;;;;;;30.98;14.55;;;1.90;71.50;;;;;;5066956;28;20438;-65
2022/12/10 06:09:58;;;;;;;33.17;14.45;;;1.90;50.00;;;;;;5069985;28;20715;-60
2022/12/10 06:12:24;;;;;;;33.63;15.57;;;2.60;99.90;;;;;;5071890;28;20555;-59
2022/12/10 06:14:49;;;;;;;34.92;15.50;;;2.00;1.00;;;;;;5071655;28;20987;-59
2022/12/10 06:17:15;;;;;;;34.42;15.02;;;2.00;1.00;;;;;;5071785;28;20383;-61
2022/12/10 06:19:40;;;;;;;29.77;14.13;;;1.90;1.00;;;;;;5069811;28;20479;-59
2022/12/10 06:22:06;;;;;;;34.70;16.30;;;2.70;1.00;;;;;;5071903;28;20384;-60
2022/12/10 06:24:31;;;;;;;32.87;14.40;;;2.00;1.00;;;;;;5072005;28;20840;-66
2022/12/10 06:26:57;;;;;;;31.92;14.85;;;2.00;1.00;;;;;;5071635;28;20404;-59
2022/12/10 06:29:23;;;;;;;34.80;15.27;;;2.10;1.00;;;;;;5071625;28;20770;-59
2022/12/10 06:31:48;;;;;;;32.30;14.63;;;2.00;1.00;;;;;;5068988;28;20413;-59
2022/12/10 06:34:14;;;;;;;31.25;13.85;;;3.70;1.00;;;;;;5069005;28;20865;-59
2022/12/10 06:36:40;;;;;;;27.70;13.90;;;2.00;1.00;;;;;;5071213;28;20880;-61
2022/12/10 06:39:05;;;;;;;33.83;14.95;;;3.60;1.00;;;;;;5071460;28;20476;-59
2022/12/10 06:41:31;;;;;;;33.60;14.30;;;2.00;1.00;;;;;;5071956;28;20376;-66
2022/12/10 06:43:58;;;;;;;34.53;14.60;;;3.20;99.90;;;;;;5071195;28;20379;-60
2022/12/10 06:46:25;;;;;;;27.77;13.52;;;2.10;99.90;;;;;;5071528;28;20536;-60
2022/12/10 06:48:51;;;;;;;32.13;14.50;;;2.20;99.90;;;;;;5070825;28;20706;-59
2022/12/10 06:51:17;;;;;;;30.98;14.40;;;2.20;99.90;;;;;;5071358;28;20442;-61
2022/12/10 06:53:43;;;;;;;28.98;13.43;;;2.20;99.90;;;;;;5064909;28;20389;-60
2022/12/10 06:56:15;;;;;;;30.23;14.15;;;2.20;48.40;;;;;;5067692;28;20407;-62
2022/12/10 06:58:42;;;;;;;28.17;13.75;;;2.10;89.30;;;;;;5069566;28;20426;-59
2022/12/10 07:01:10;;;;;;;33.88;15.10;;;2.10;99.90;;;;;;5066399;28;20394;-59
2022/12/10 07:03:36;;;;;;;32.58;14.68;;;2.10;99.90;;;;;;5065096;28;21004;-65
2022/12/10 07:06:04;;;;;;;28.75;12.95;;;2.10;1.00;;;;;;5066332;28;20765;-59
2022/12/10 07:08:30;;;;;;;28.40;13.23;;;2.10;99.90;;;;;;5071645;28;20415;-59
2022/12/10 07:10:56;;;;;;;29.27;13.88;;;2.10;1.00;;;;;;5070714;28;20415;-60
2022/12/10 07:13:22;;;;;;;30.05;15.50;;;2.10;59.10;;;;;;5071175;28;20384;-60
2022/12/10 07:15:48;;;;;;;35.08;14.25;;;2.20;1.00;;;;;;5070312;28;20399;-60
2022/12/10 07:18:14;;;;;;;30.80;15.30;;;2.20;1.00;;;;;;5070901;28;20830;-60
2022/12/10 07:20:39;;;;;;;43.13;19.52;;;2.10;34.10;;;;;;5069632;28;20432;-60
2022/12/10 07:23:05;;;;;;;43.38;19.95;;;2.20;1.00;;;;;;5071065;28;20928;-60
2022/12/10 07:25:31;;;;;;;31.37;15.47;;;2.20;1.00;;;;;;5071333;28;20733;-60
2022/12/10 07:27:57;;;;;;;30.73;14.32;;;2.30;1.00;;;;;;5071256;28;20440;-59
2022/12/10 07:30:22;;;;;;;34.53;15.20;;;4.20;1.00;;;;;;5070863;28;20387;-60
2022/12/10 07:32:48;;;;;;;33.00;14.65;;;2.40;99.90;;;;;;5070064;28;20384;-60
2022/12/10 07:35:13;;;;;;;32.90;15.47;;;4.00;99.90;;;;;;5069842;28;20745;-61
2022/12/10 07:37:39;;;;;;;32.47;14.98;;;4.00;99.90;;;;;;5069818;28;20410;-60
2022/12/10 07:40:05;;;;;;;33.23;15.17;;;2.40;1.00;;;;;;5070523;28;20733;-59
2022/12/10 07:42:31;;;;;;;38.70;16.20;;;2.30;99.90;;;;;;5070580;28;20376;-61
2022/12/10 07:44:56;;;;;;;40.93;18.97;;;2.30;1.00;;;;;;5070085;28;20388;-60
2022/12/10 07:47:22;;;;;;;34.03;16.85;;;2.30;1.00;;;;;;5070555;28;20404;-60
2022/12/10 07:49:48;;;;;;;36.17;18.03;;;2.20;99.90;;;;;;5069851;28;20471;-63
2022/12/10 07:52:13;;;;;;;38.60;17.75;;;2.20;10.00;;;;;;5069898;28;20911;-61
2022/12/10 07:54:39;;;;;;;39.15;17.00;;;2.10;1.00;;;;;;5069487;28;20380;-61
2022/12/10 07:57:04;;;;;;;35.37;16.43;;;2.10;1.00;;;;;;5070360;28;20478;-60
2022/12/10 07:59:30;;;;;;;33.83;16.30;;;2.10;1.00;;;;;;5070538;28;20880;-58
2022/12/10 08:01:57;;;;;;;32.53;15.40;;;2.20;1.00;;;;;;5069519;28;20388;-58
2022/12/10 08:04:22;;;;;;;35.60;17.42;;;2.30;1.00;;;;;;5070118;28;20399;-59
2022/12/10 08:06:48;;;;;;;36.17;17.98;;;2.40;5.20;;;;;;5069653;28;20411;-58
2022/12/10 08:09:14;;;;;;;41.05;18.88;;;2.40;1.00;;;;;;5070242;28;20437;-58
2022/12/10 08:11:40;;;;;;;36.85;17.42;;;3.50;1.00;;;;;;5069287;28;20725;-58
2022/12/10 08:14:05;;;;;;;35.83;17.50;;;2.40;99.90;;;;;;5070075;28;20387;-60
2022/12/10 08:16:31;;;;;;;43.40;18.52;;;2.50;1.00;;;;;;5070107;28;20875;-59
2022/12/10 08:19:00;;;;;;;30.87;15.63;;;2.60;59.20;;;;;;5069417;28;20476;-60
2022/12/10 08:21:29;;;;;;;33.42;15.32;;;2.50;1.00;;;;;;5069938;28;20386;-59
2022/12/10 08:23:55;;;;;;;38.50;17.75;;;2.50;99.90;;;;;;5069730;28;20419;-59
2022/12/10 08:26:24;;;;;;;34.55;15.27;;;2.40;1.00;;;;;;5070046;28;20439;-59
2022/12/10 08:28:50;;;;;;;30.60;14.88;;;2.40;86.60;;;;;;5069125;28;20525;-59
2022/12/10 08:31:17;;;;;;;34.10;14.68;;;3.80;1.00;;;;;;5069784;28;20383;-58
2022/12/10 08:33:43;;;;;;;32.20;14.95;;;2.80;99.90;;;;;;5068942;28;20448;-61
2022/12/10 08:36:11;;;;;;;31.13;14.07;;;2.50;99.90;;;;;;5069998;28;20443;-64
2022/12/10 08:38:37;;;;;;;34.40;18.37;;;3.00;1.00;;;;;;5069452;28;20429;-65
2022/12/10 08:41:20;;;;;;;28.97;13.70;;;2.80;1.00;;;;;;5051138;28;20470;-60
2022/12/10 08:43:47;;;;;;;27.83;14.32;;;2.70;99.90;;;;;;5069296;28;20376;-59
2022/12/10 08:46:14;;;;;;;29.38;13.95;;;2.60;99.90;;;;;;5069724;28;20427;-59
2022/12/10 08:48:40;;;;;;;30.48;13.13;;;2.50;99.90;;;;;;5068780;28;20391;-59
2022/12/10 08:51:06;;;;;;;32.00;13.98;;;2.50;1.00;;;;;;5069430;28;20368;-62
2022/12/10 08:53:33;;;;;;;27.93;13.30;;;2.60;99.90;;;;;;5069767;28;20376;-58
2022/12/10 08:55:59;;;;;;;32.00;14.10;;;2.30;1.00;;;;;;5051284;28;20399;-59
2022/12/10 08:58:24;;;;;;;29.13;13.93;;;2.30;99.90;;;;;;5051671;28;20384;-66
2022/12/10 09:00:50;;;;;;;35.72;15.13;;;2.40;99.90;;;;;;5069372;28;20379;-62
2022/12/10 09:03:16;;;;;;;36.40;15.73;;;2.40;99.90;;;;;;5069846;28;20375;-60
2022/12/10 09:05:42;;;;;;;31.17;13.47;;;4.20;99.90;;;;;;5069419;28;20478;-60
2022/12/10 09:08:08;;;;;;;32.58;15.18;;;3.90;99.90;;;;;;5069329;28;20719;-59
2022/12/10 09:10:36;;;;;;;33.00;16.30;;;2.50;22.90;;;;;;5069845;28;20537;-61
2022/12/10 09:13:02;;;;;;;26.58;13.20;;;2.60;1.00;;;;;;5069272;28;20419;-59
2022/12/10 09:15:28;;;;;;;25.55;12.35;;;2.70;99.90;;;;;;5069454;28;20384;-59
2022/12/10 09:17:53;;;;;;;32.57;15.70;;;2.60;99.90;;;;;;5068743;28;21025;-59
2022/12/10 09:20:19;;;;;;;30.00;15.73;;;2.70;99.90;;;;;;5069560;28;20383;-62
2022/12/10 09:22:44;;;;;;;28.30;13.97;;;2.70;99.90;;;;;;5068484;28;20743;-58
2022/12/10 09:25:10;;;;;;;32.55;14.15;;;2.60;99.90;;;;;;5069292;28;20384;-59
2022/12/10 09:27:36;;;;;;;33.50;17.60;;;3.70;99.90;;;;;;5069079;28;20457;-59
2022/12/10 09:30:04;;;;;;;30.67;14.35;;;2.60;99.90;;;;;;5069754;28;20376;-59
2022/12/10 09:32:29;;;;;;;30.73;13.68;;;2.70;99.90;;;;;;5069108;28;20384;-60
2022/12/10 09:34:55;;;;;;;33.45;15.75;;;2.90;77.40;;;;;;5068657;28;20387;-59
2022/12/10 09:37:21;;;;;;;32.80;14.60;;;3.10;1.00;;;;;;5051462;28;20392;-59
2022/12/10 09:39:46;;;;;;;32.85;15.85;;;3.20;1.00;;;;;;5068597;28;20437;-59
2022/12/10 09:42:12;;;;;;;32.73;15.60;;;3.30;1.00;;;;;;5069602;28;20434;-59
2022/12/10 09:44:42;;;;;;;33.25;14.23;;;3.40;99.90;;;;;;5068699;28;20380;-64
2022/12/10 09:47:10;;;;;;;38.75;16.77;;;4.90;99.90;;;;;;5068980;28;20459;-59
2022/12/10 09:49:55;;;;;;;34.78;16.98;;;3.30;99.90;;;;;;5068822;28;20384;-64
2022/12/10 09:52:24;;;;;;;30.55;15.07;;;3.30;99.90;;;;;;5069448;28;20429;-59
2022/12/10 09:54:53;;;;;;;31.52;14.45;;;3.30;99.90;;;;;;5072360;28;20372;-59
2022/12/10 09:57:27;;;;;;;34.30;16.30;;;3.20;99.90;;;;;;5072810;28;20395;-60
2022/12/10 09:59:53;;;;;;;34.10;15.25;;;3.30;99.90;;;;;;5072058;28;20465;-59
2022/12/10 10:02:27;;;;;;;36.20;17.55;;;3.30;74.90;;;;;;5072719;28;20376;-59
2022/12/10 10:05:05;;;;;;;37.83;16.30;;;3.30;95.70;;;;;;5071367;28;20387;-59
2022/12/10 10:07:32;;;;;;;40.45;17.70;;;3.30;57.90;;;;;;5072399;28;20415;-59
2022/12/10 10:10:03;;;;;;;31.30;14.80;;;3.20;99.90;;;;;;5072146;28;20372;-58
2022/12/10 10:12:32;;;;;;;36.38;14.88;;;3.20;99.90;;;;;;5072677;28;20884;-60
2022/12/10 10:15:10;;;;;;;34.70;15.18;;;3.20;99.90;;;;;;5071937;28;20419;-59
2022/12/10 10:17:38;;;;;;;34.90;17.38;;;5.10;99.90;;;;;;5071910;28;20475;-66
2022/12/10 10:20:04;;;;;;;29.70;14.40;;;3.40;99.90;;;;;;5072904;28;20376;-59
2022/12/10 10:22:30;;;;;;;29.17;13.35;;;3.50;82.80;;;;;;5072149;28;20458;-62
2022/12/10 10:24:56;;;;;;;27.83;12.20;;;3.50;1.50;;;;;;5071184;28;20456;-59
2022/12/10 10:27:26;;;;;;;28.45;13.23;;;3.30;1.00;;;;;;5071748;28;20469;-59
2022/12/10 10:29:54;;;;;;;26.43;12.57;;;5.10;6.10;;;;;;5071540;28;20387;-60
2022/12/10 10:32:47;;;;;;;24.48;12.13;;;3.40;1.00;;;;;;5071907;28;20869;-59
2022/12/10 10:35:23;;;;;;;25.92;12.82;;;3.40;1.00;;;;;;5071736;28;20399;-61
2022/12/10 10:37:49;;;;;;;23.98;11.10;;;3.50;1.00;;;;;;5071469;28;20380;-59
2022/12/10 10:40:34;;;;;;;25.50;12.10;;;4.90;1.00;;;;;;5071856;28;20778;-59
2022/12/10 10:43:00;;;;;;;29.45;13.95;;;3.50;1.00;;;;;;5071272;28;20462;-59
2022/12/10 10:45:48;;;;;;;31.55;13.82;;;3.60;1.00;;;;;;5071667;28;20387;-60
2022/12/10 10:48:19;;;;;;;26.13;12.27;;;3.50;1.00;;;;;;5071566;28;20812;-59
2022/12/10 10:50:55;;;;;;;27.60;13.07;;;5.00;1.00;;;;;;5071750;28;20384;-60
2022/12/10 10:53:34;;;;;;;35.42;13.48;;;3.40;1.00;;;;;;5071872;28;20376;-59
2022/12/10 10:56:08;;;;;;;29.50;13.27;;;4.40;1.00;;;;;;5070725;28;20376;-60
2022/12/10 10:58:34;;;;;;;25.88;11.68;;;3.70;1.00;;;;;;5071430;28;20861;-60
2022/12/10 11:01:06;;;;;;;27.20;12.10;;;3.50;1.00;;;;;;5071072;28;20470;-60
2022/12/10 11:03:35;;;;;;;30.67;12.80;;;3.60;1.00;;;;;;5071689;28;20396;-59
2022/12/10 11:06:06;;;;;;;28.38;13.98;;;4.70;1.00;;;;;;5070191;28;20465;-59
2022/12/10 11:08:31;;;;;;;31.83;14.85;;;3.80;1.00;;;;;;5071777;28;20451;-59
2022/12/10 11:11:16;;;;;;;34.00;14.40;;;3.80;99.90;;;;;;5052670;28;20466;-60
2022/12/10 11:13:42;;;;;;;34.95;14.35;;;5.50;99.90;;;;;;5070547;28;20855;-59
2022/12/10 11:16:20;;;;;;;29.65;13.32;;;3.80;99.90;;;;;;5071151;28;20431;-59
2022/12/10 11:19:02;;;;;;;27.10;11.95;;;3.80;99.90;;;;;;5070794;28;20403;-59
2022/12/10 11:21:29;;;;;;;29.70;12.60;;;4.00;99.90;;;;;;5071268;28;20422;-57
2022/12/10 11:23:57;;;;;;;29.77;13.40;;;5.50;99.90;;;;;;5070061;28;20828;-57
2022/12/10 11:26:25;;;;;;;26.33;11.43;;;5.50;99.90;;;;;;5070966;28;20403;-58
2022/12/10 11:29:17;;;;;;;26.73;12.45;;;4.20;99.90;;;;;;5070082;28;20438;-58
2022/12/10 11:31:51;;;;;;;25.55;12.40;;;4.30;99.90;;;;;;5070262;28;20419;-58
2022/12/10 11:34:34;;;;;;;26.17;12.38;;;4.20;99.90;;;;;;5070764;28;20449;-59
2022/12/10 11:37:26;;;;;;;30.48;12.77;;;4.20;99.90;;;;;;5070107;28;20968;-58
2022/12/10 11:40:00;;;;;;;25.97;12.43;;;4.30;99.90;;;;;;5064912;28;20398;-58
2022/12/10 11:42:46;;;;;;;24.65;11.88;;;4.20;94.60;;;;;;5071093;28;20800;-58
2022/12/10 11:45:51;;;;;;;24.13;12.00;;;4.20;91.80;;;;;;5070947;28;20837;-58
2022/12/10 11:48:51;;;;;;;29.52;13.07;;;4.30;56.30;;;;;;5070837;28;20450;-58
2022/12/10 11:51:30;;;;;;;27.15;12.45;;;4.50;31.70;;;;;;5070763;28;20385;-59
2022/12/10 11:54:05;;;;;;;27.60;13.07;;;4.50;5.10;;;;;;5069992;28;20459;-58
2022/12/10 11:56:33;;;;;;;25.80;11.80;;;4.60;1.00;;;;;;5070623;28;20394;-59
2022/12/10 11:59:16;;;;;;;28.15;12.88;;;4.40;1.00;;;;;;5069782;28;20544;-59
2022/12/10 12:01:41;;;;;;;25.15;11.93;;;5.50;1.00;;;;;;5069551;28;20895;-60
2022/12/10 12:04:32;;;;;;;22.93;10.63;;;4.40;1.00;;;;;;5070191;28;20494;-59
2022/12/10 12:07:22;;;;;;;22.42;10.27;;;4.50;1.00;;;;;;5069539;28;20415;-59
2022/12/10 12:10:23;;;;;;;23.27;10.77;;;4.60;1.00;;;;;;5069837;28;20384;-59
2022/12/10 12:13:00;;;;;;;24.50;11.47;;;4.50;1.00;;;;;;5051204;28;20399;-59
2022/12/10 12:15:33;;;;;;;23.80;11.50;;;4.50;1.00;;;;;;5049999;28;20468;-59
2022/12/10 12:18:08;;;;;;;25.25;11.70;;;4.50;1.00;;;;;;5049858;28;20898;-59
2022/12/10 12:20:39;;;;;;;21.92;9.70;;;4.40;1.00;;;;;;5050066;28;20378;-59
2022/12/10 12:23:15;;;;;;;23.88;10.55;;;5.80;1.00;;;;;;5050389;28;20385;-59
2022/12/10 12:25:46;;;;;;;23.92;10.40;;;4.40;1.00;;;;;;5049851;28;20836;-59
2022/12/10 12:28:19;;;;;;;19.95;9.60;;;4.50;1.00;;;;;;5050251;28;20413;-59
2022/12/10 12:30:48;;;;;;;21.83;10.05;;;4.40;1.00;;;;;;5049666;28;20393;-59
2022/12/10 12:33:29;;;;;;;22.58;10.50;;;4.20;1.00;;;;;;5050527;28;20369;-59
2022/12/10 12:36:09;;;;;;;23.13;10.98;;;4.30;1.00;;;;;;5049496;28;20713;-59
2022/12/10 12:38:59;;;;;;;26.85;13.27;;;4.40;1.00;;;;;;5050386;28;20373;-59
2022/12/10 12:41:47;;;;;;;26.75;11.75;;;4.60;1.00;;;;;;5050192;28;20374;-59
2022/12/10 12:44:41;;;;;;;25.00;11.02;;;4.50;1.00;;;;;;5050152;28;20431;-59
2022/12/10 12:47:36;;;;;;;26.85;11.30;;;5.30;1.00;;;;;;5050035;28;20413;-59
2022/12/10 12:50:05;;;;;;;20.55;10.27;;;4.40;1.00;;;;;;5031866;28;20477;-59
2022/12/10 12:52:42;;;;;;;27.33;12.00;;;4.20;1.00;;;;;;5049655;28;20417;-60
2022/12/10 12:55:20;;;;;;;24.10;10.40;;;4.30;1.00;;;;;;5050145;28;20381;-59
2022/12/10 12:58:21;;;;;;;23.27;9.80;;;4.20;1.00;;;;;;5049434;28;20785;-59
2022/12/10 13:00:50;;;;;;;28.10;12.90;;;3.90;1.00;;;;;;5048959;28;20877;-59
2022/12/10 13:03:35;;;;;;;33.60;14.55;;;4.00;1.00;;;;;;5049475;28;20735;-59
2022/12/10 13:06:25;;;;;;;28.63;14.07;;;3.90;1.00;;;;;;5048915;28;20374;-59